sensor_id;sensor_type;location;lat;lon;timestamp;P1;durP1;ratioP1;P2;durP2;ratioP2
43990;SDS011;29654;50.784;20.604;2022-11-11T00:01:56;11.07;;;8.30;;
43990;SDS011;29654;50.784;20.604;2022-11-11T00:07:18;7.75;;;6.95;;
43990;SDS011;29654;50.784;20.604;2022-11-11T00:12:39;8.73;;;7.78;;
43990;SDS011;29654;50.784;20.604;2022-11-11T00:18:02;8.75;;;7.55;;
43990;SDS011;29654;50.784;20.604;2022-11-11T00:23:41;9.63;;;8.20;;
43990;SDS011;29654;50.784;20.604;2022-11-11T00:29:20;9.40;;;7.82;;
43990;SDS011;29654;50.784;20.604;2022-11-11T00:34:43;7.20;;;6.50;;
43990;SDS011;29654;50.784;20.604;2022-11-11T00:40:24;9.60;;;7.82;;
43990;SDS011;29654;50.784;20.604;2022-11-11T00:45:46;11.13;;;8.65;;
43990;SDS011;29654;50.784;20.604;2022-11-11T00:51:09;9.80;;;8.20;;
43990;SDS011;29654;50.784;20.604;2022-11-11T00:56:30;10.35;;;8.65;;
43990;SDS011;29654;50.784;20.604;2022-11-11T01:01:51;11.20;;;8.55;;
43990;SDS011;29654;50.784;20.604;2022-11-11T01:07:14;12.50;;;9.85;;
43990;SDS011;29654;50.784;20.604;2022-11-11T01:12:37;13.00;;;9.07;;
43990;SDS011;29654;50.784;20.604;2022-11-11T01:17:58;10.48;;;8.55;;
43990;SDS011;29654;50.784;20.604;2022-11-11T01:23:21;11.70;;;9.25;;
43990;SDS011;29654;50.784;20.604;2022-11-11T01:28:43;11.75;;;9.38;;
43990;SDS011;29654;50.784;20.604;2022-11-11T01:34:08;11.90;;;9.75;;
43990;SDS011;29654;50.784;20.604;2022-11-11T01:39:30;10.50;;;9.40;;
43990;SDS011;29654;50.784;20.604;2022-11-11T01:44:52;12.43;;;10.23;;
43990;SDS011;29654;50.784;20.604;2022-11-11T01:50:14;11.48;;;9.50;;
43990;SDS011;29654;50.784;20.604;2022-11-11T01:55:37;10.75;;;9.45;;
43990;SDS011;29654;50.784;20.604;2022-11-11T02:00:59;12.25;;;9.38;;
43990;SDS011;29654;50.784;20.604;2022-11-11T02:06:22;10.55;;;9.45;;
43990;SDS011;29654;50.784;20.604;2022-11-11T02:11:45;11.73;;;9.77;;
43990;SDS011;29654;50.784;20.604;2022-11-11T02:17:24;10.68;;;9.55;;
43990;SDS011;29654;50.784;20.604;2022-11-11T02:22:50;11.18;;;9.98;;
43990;SDS011;29654;50.784;20.604;2022-11-11T02:28:18;11.05;;;9.88;;
43990;SDS011;29654;50.784;20.604;2022-11-11T02:33:41;10.82;;;9.70;;
43990;SDS011;29654;50.784;20.604;2022-11-11T02:39:03;12.07;;;9.88;;
43990;SDS011;29654;50.784;20.604;2022-11-11T02:44:26;12.73;;;10.18;;
43990;SDS011;29654;50.784;20.604;2022-11-11T02:49:47;11.13;;;9.93;;
43990;SDS011;29654;50.784;20.604;2022-11-11T02:55:08;13.07;;;10.52;;
43990;SDS011;29654;50.784;20.604;2022-11-11T03:00:31;12.55;;;10.73;;
43990;SDS011;29654;50.784;20.604;2022-11-11T03:05:53;11.45;;;10.23;;
43990;SDS011;29654;50.784;20.604;2022-11-11T03:11:14;11.15;;;9.90;;
43990;SDS011;29654;50.784;20.604;2022-11-11T03:16:47;11.30;;;9.75;;
43990;SDS011;29654;50.784;20.604;2022-11-11T03:22:25;12.73;;;10.60;;
43990;SDS011;29654;50.784;20.604;2022-11-11T03:27:47;12.57;;;10.43;;
43990;SDS011;29654;50.784;20.604;2022-11-11T03:33:10;14.00;;;10.82;;
43990;SDS011;29654;50.784;20.604;2022-11-11T03:38:31;12.25;;;10.95;;
43990;SDS011;29654;50.784;20.604;2022-11-11T03:43:53;13.15;;;10.52;;
43990;SDS011;29654;50.784;20.604;2022-11-11T03:49:16;15.75;;;10.48;;
43990;SDS011;29654;50.784;20.604;2022-11-11T03:54:37;13.35;;;10.95;;
43990;SDS011;29654;50.784;20.604;2022-11-11T03:59:58;12.20;;;11.00;;
43990;SDS011;29654;50.784;20.604;2022-11-11T04:05:21;12.65;;;11.30;;
43990;SDS011;29654;50.784;20.604;2022-11-11T04:11:02;11.40;;;10.15;;
43990;SDS011;29654;50.784;20.604;2022-11-11T04:16:29;14.60;;;11.95;;
43990;SDS011;29654;50.784;20.604;2022-11-11T04:21:51;14.00;;;11.07;;
43990;SDS011;29654;50.784;20.604;2022-11-11T04:27:13;12.35;;;10.57;;
43990;SDS011;29654;50.784;20.604;2022-11-11T04:32:36;16.08;;;12.38;;
43990;SDS011;29654;50.784;20.604;2022-11-11T04:37:59;14.85;;;12.50;;
43990;SDS011;29654;50.784;20.604;2022-11-11T04:43:34;14.38;;;11.30;;
43990;SDS011;29654;50.784;20.604;2022-11-11T04:49:16;14.15;;;11.63;;
43990;SDS011;29654;50.784;20.604;2022-11-11T04:54:39;14.90;;;12.50;;
43990;SDS011;29654;50.784;20.604;2022-11-11T05:00:15;14.27;;;11.55;;
43990;SDS011;29654;50.784;20.604;2022-11-11T05:05:37;16.13;;;12.18;;
43990;SDS011;29654;50.784;20.604;2022-11-11T05:11:14;13.18;;;11.70;;
43990;SDS011;29654;50.784;20.604;2022-11-11T05:16:37;15.48;;;12.88;;
43990;SDS011;29654;50.784;20.604;2022-11-11T05:22:21;18.33;;;14.00;;
43990;SDS011;29654;50.784;20.604;2022-11-11T05:27:47;15.40;;;12.70;;
43990;SDS011;29654;50.784;20.604;2022-11-11T05:33:08;17.52;;;13.93;;
43990;SDS011;29654;50.784;20.604;2022-11-11T05:38:30;16.45;;;13.48;;
43990;SDS011;29654;50.784;20.604;2022-11-11T05:43:53;18.45;;;13.65;;
43990;SDS011;29654;50.784;20.604;2022-11-11T05:49:14;14.75;;;13.30;;
43990;SDS011;29654;50.784;20.604;2022-11-11T05:54:35;18.00;;;13.30;;
43990;SDS011;29654;50.784;20.604;2022-11-11T05:59:58;15.35;;;13.52;;
43990;SDS011;29654;50.784;20.604;2022-11-11T06:05:19;14.93;;;13.15;;
43990;SDS011;29654;50.784;20.604;2022-11-11T06:10:41;16.35;;;13.68;;
43990;SDS011;29654;50.784;20.604;2022-11-11T06:16:05;16.90;;;14.00;;
43990;SDS011;29654;50.784;20.604;2022-11-11T06:21:27;16.35;;;13.20;;
43990;SDS011;29654;50.784;20.604;2022-11-11T06:26:48;18.00;;;14.10;;
43990;SDS011;29654;50.784;20.604;2022-11-11T06:32:11;17.83;;;14.50;;
43990;SDS011;29654;50.784;20.604;2022-11-11T06:37:32;20.45;;;15.02;;
43990;SDS011;29654;50.784;20.604;2022-11-11T06:42:53;17.23;;;13.73;;
43990;SDS011;29654;50.784;20.604;2022-11-11T06:48:16;15.18;;;13.60;;
43990;SDS011;29654;50.784;20.604;2022-11-11T06:53:37;17.65;;;14.40;;
43990;SDS011;29654;50.784;20.604;2022-11-11T06:58:59;16.50;;;14.27;;
43990;SDS011;29654;50.784;20.604;2022-11-11T07:04:21;17.15;;;13.85;;
43990;SDS011;29654;50.784;20.604;2022-11-11T07:09:43;17.40;;;14.18;;
43990;SDS011;29654;50.784;20.604;2022-11-11T07:15:04;18.33;;;14.73;;
43990;SDS011;29654;50.784;20.604;2022-11-11T07:20:28;17.60;;;14.30;;
43990;SDS011;29654;50.784;20.604;2022-11-11T07:25:49;17.15;;;15.10;;
43990;SDS011;29654;50.784;20.604;2022-11-11T07:31:11;19.40;;;15.30;;
43990;SDS011;29654;50.784;20.604;2022-11-11T07:36:34;19.60;;;16.25;;
43990;SDS011;29654;50.784;20.604;2022-11-11T07:41:55;16.45;;;14.63;;
43990;SDS011;29654;50.784;20.604;2022-11-11T07:47:17;18.35;;;15.30;;
43990;SDS011;29654;50.784;20.604;2022-11-11T07:52:40;17.88;;;15.23;;
43990;SDS011;29654;50.784;20.604;2022-11-11T07:58:07;17.40;;;14.55;;
43990;SDS011;29654;50.784;20.604;2022-11-11T08:03:28;15.25;;;13.50;;
43990;SDS011;29654;50.784;20.604;2022-11-11T08:08:51;16.90;;;14.20;;
43990;SDS011;29654;50.784;20.604;2022-11-11T08:14:13;15.65;;;12.75;;
43990;SDS011;29654;50.784;20.604;2022-11-11T08:19:34;15.80;;;12.18;;
43990;SDS011;29654;50.784;20.604;2022-11-11T08:24:57;15.00;;;13.40;;
43990;SDS011;29654;50.784;20.604;2022-11-11T08:30:18;17.25;;;13.43;;
43990;SDS011;29654;50.784;20.604;2022-11-11T08:35:41;17.63;;;12.93;;
43990;SDS011;29654;50.784;20.604;2022-11-11T08:41:04;13.90;;;11.98;;
43990;SDS011;29654;50.784;20.604;2022-11-11T08:46:27;14.73;;;12.40;;
43990;SDS011;29654;50.784;20.604;2022-11-11T08:51:48;14.02;;;11.27;;
43990;SDS011;29654;50.784;20.604;2022-11-11T08:57:11;13.18;;;11.02;;
43990;SDS011;29654;50.784;20.604;2022-11-11T09:02:32;13.63;;;11.73;;
43990;SDS011;29654;50.784;20.604;2022-11-11T09:07:54;14.05;;;10.63;;
43990;SDS011;29654;50.784;20.604;2022-11-11T09:13:17;13.38;;;11.05;;
43990;SDS011;29654;50.784;20.604;2022-11-11T09:18:38;12.25;;;10.57;;
43990;SDS011;29654;50.784;20.604;2022-11-11T09:24:00;10.73;;;9.63;;
43990;SDS011;29654;50.784;20.604;2022-11-11T09:29:22;12.35;;;9.07;;
43990;SDS011;29654;50.784;20.604;2022-11-11T09:34:44;10.30;;;8.95;;
43990;SDS011;29654;50.784;20.604;2022-11-11T09:40:05;10.43;;;7.82;;
43990;SDS011;29654;50.784;20.604;2022-11-11T09:45:35;10.88;;;8.13;;
43990;SDS011;29654;50.784;20.604;2022-11-11T09:51:13;8.82;;;7.85;;
43990;SDS011;29654;50.784;20.604;2022-11-11T09:56:40;9.45;;;6.95;;
43990;SDS011;29654;50.784;20.604;2022-11-11T10:02:03;8.85;;;6.40;;
43990;SDS011;29654;50.784;20.604;2022-11-11T10:07:40;7.80;;;5.82;;
43990;SDS011;29654;50.784;20.604;2022-11-11T10:13:10;7.47;;;6.13;;
43990;SDS011;29654;50.784;20.604;2022-11-11T10:18:45;7.10;;;5.53;;
43990;SDS011;29654;50.784;20.604;2022-11-11T10:24:25;7.00;;;4.57;;
43990;SDS011;29654;50.784;20.604;2022-11-11T10:29:53;7.97;;;5.15;;
43990;SDS011;29654;50.784;20.604;2022-11-11T10:35:20;6.97;;;4.93;;
43990;SDS011;29654;50.784;20.604;2022-11-11T10:40:47;6.32;;;4.93;;
43990;SDS011;29654;50.784;20.604;2022-11-11T10:46:14;5.70;;;4.32;;
43990;SDS011;29654;50.784;20.604;2022-11-11T10:51:41;5.20;;;4.70;;
43990;SDS011;29654;50.784;20.604;2022-11-11T10:57:12;6.18;;;4.50;;
43990;SDS011;29654;50.784;20.604;2022-11-11T11:02:41;6.57;;;4.65;;
43990;SDS011;29654;50.784;20.604;2022-11-11T11:08:13;6.05;;;4.50;;
43990;SDS011;29654;50.784;20.604;2022-11-11T11:13:39;9.00;;;4.90;;
43990;SDS011;29654;50.784;20.604;2022-11-11T11:19:18;7.20;;;4.45;;
43990;SDS011;29654;50.784;20.604;2022-11-11T11:24:43;6.90;;;4.38;;
43990;SDS011;29654;50.784;20.604;2022-11-11T11:30:09;4.95;;;4.28;;
43990;SDS011;29654;50.784;20.604;2022-11-11T11:35:34;6.07;;;4.20;;
43990;SDS011;29654;50.784;20.604;2022-11-11T11:40:59;6.28;;;3.90;;
43990;SDS011;29654;50.784;20.604;2022-11-11T11:46:25;4.82;;;4.32;;
43990;SDS011;29654;50.784;20.604;2022-11-11T11:51:50;4.25;;;3.53;;
43990;SDS011;29654;50.784;20.604;2022-11-11T11:57:23;4.30;;;3.90;;
43990;SDS011;29654;50.784;20.604;2022-11-11T12:03:18;6.63;;;3.70;;
43990;SDS011;29654;50.784;20.604;2022-11-11T12:09:07;5.25;;;3.50;;
43990;SDS011;29654;50.784;20.604;2022-11-11T12:20:27;8.25;;;5.82;;
43990;SDS011;29654;50.784;20.604;2022-11-11T12:26:00;14.35;;;9.52;;
43990;SDS011;29654;50.784;20.604;2022-11-11T12:31:32;12.43;;;7.78;;
43990;SDS011;29654;50.784;20.604;2022-11-11T12:37:12;13.52;;;10.00;;
43990;SDS011;29654;50.784;20.604;2022-11-11T12:42:47;9.23;;;6.07;;
43990;SDS011;29654;50.784;20.604;2022-11-11T12:48:40;10.40;;;6.43;;
43990;SDS011;29654;50.784;20.604;2022-11-11T12:54:26;9.82;;;6.03;;
43990;SDS011;29654;50.784;20.604;2022-11-11T13:00:04;9.90;;;7.15;;
43990;SDS011;29654;50.784;20.604;2022-11-11T13:05:34;9.98;;;7.65;;
43990;SDS011;29654;50.784;20.604;2022-11-11T13:11:02;6.53;;;5.18;;
43990;SDS011;29654;50.784;20.604;2022-11-11T13:16:32;9.20;;;6.85;;
43990;SDS011;29654;50.784;20.604;2022-11-11T13:21:56;10.73;;;7.15;;
43990;SDS011;29654;50.784;20.604;2022-11-11T13:27:25;10.70;;;7.80;;
43990;SDS011;29654;50.784;20.604;2022-11-11T13:32:58;8.98;;;7.13;;
43990;SDS011;29654;50.784;20.604;2022-11-11T13:38:26;7.65;;;6.53;;
43990;SDS011;29654;50.784;20.604;2022-11-11T13:43:50;8.02;;;6.00;;
43990;SDS011;29654;50.784;20.604;2022-11-11T13:49:19;6.35;;;5.75;;
43990;SDS011;29654;50.784;20.604;2022-11-11T13:54:48;5.30;;;4.80;;
43990;SDS011;29654;50.784;20.604;2022-11-11T14:00:23;7.90;;;5.97;;
43990;SDS011;29654;50.784;20.604;2022-11-11T14:05:48;8.63;;;5.88;;
43990;SDS011;29654;50.784;20.604;2022-11-11T14:17:57;4.25;;;3.85;;
43990;SDS011;29654;50.784;20.604;2022-11-11T14:23:32;8.48;;;4.88;;
43990;SDS011;29654;50.784;20.604;2022-11-11T14:29:00;4.80;;;4.07;;
43990;SDS011;29654;50.784;20.604;2022-11-11T14:34:30;5.72;;;4.60;;
43990;SDS011;29654;50.784;20.604;2022-11-11T14:40:25;5.43;;;4.35;;
43990;SDS011;29654;50.784;20.604;2022-11-11T14:45:51;6.78;;;5.10;;
43990;SDS011;29654;50.784;20.604;2022-11-11T14:57:17;7.70;;;5.80;;
43990;SDS011;29654;50.784;20.604;2022-11-11T15:02:46;8.98;;;6.28;;
43990;SDS011;29654;50.784;20.604;2022-11-11T15:08:13;7.70;;;5.57;;
43990;SDS011;29654;50.784;20.604;2022-11-11T15:14:03;8.82;;;6.55;;
43990;SDS011;29654;50.784;20.604;2022-11-11T15:19:41;8.90;;;6.50;;
43990;SDS011;29654;50.784;20.604;2022-11-11T15:25:22;7.57;;;6.00;;
43990;SDS011;29654;50.784;20.604;2022-11-11T15:30:58;10.40;;;6.80;;
43990;SDS011;29654;50.784;20.604;2022-11-11T15:36:38;8.38;;;6.93;;
43990;SDS011;29654;50.784;20.604;2022-11-11T15:42:12;7.53;;;6.10;;
43990;SDS011;29654;50.784;20.604;2022-11-11T15:47:46;8.48;;;7.60;;
43990;SDS011;29654;50.784;20.604;2022-11-11T15:53:11;10.65;;;8.27;;
43990;SDS011;29654;50.784;20.604;2022-11-11T15:58:34;9.65;;;8.05;;
43990;SDS011;29654;50.784;20.604;2022-11-11T16:03:55;9.95;;;7.97;;
43990;SDS011;29654;50.784;20.604;2022-11-11T16:09:20;12.05;;;8.43;;
43990;SDS011;29654;50.784;20.604;2022-11-11T16:14:45;13.95;;;8.77;;
43990;SDS011;29654;50.784;20.604;2022-11-11T16:20:11;11.77;;;9.93;;
43990;SDS011;29654;50.784;20.604;2022-11-11T16:25:37;16.15;;;11.30;;
43990;SDS011;29654;50.784;20.604;2022-11-11T16:30:58;14.45;;;11.30;;
43990;SDS011;29654;50.784;20.604;2022-11-11T16:36:21;14.95;;;10.52;;
43990;SDS011;29654;50.784;20.604;2022-11-11T16:41:44;13.77;;;10.98;;
43990;SDS011;29654;50.784;20.604;2022-11-11T16:47:29;15.20;;;12.05;;
43990;SDS011;29654;50.784;20.604;2022-11-11T16:53:03;15.48;;;12.07;;
43990;SDS011;29654;50.784;20.604;2022-11-11T16:58:26;15.25;;;12.45;;
43990;SDS011;29654;50.784;20.604;2022-11-11T17:03:52;16.15;;;12.43;;
43990;SDS011;29654;50.784;20.604;2022-11-11T17:15:00;16.35;;;12.73;;
43990;SDS011;29654;50.784;20.604;2022-11-11T17:20:22;16.77;;;12.50;;
43990;SDS011;29654;50.784;20.604;2022-11-11T17:25:43;14.95;;;11.48;;
43990;SDS011;29654;50.784;20.604;2022-11-11T17:31:07;18.10;;;13.30;;
43990;SDS011;29654;50.784;20.604;2022-11-11T17:36:30;15.88;;;12.10;;
43990;SDS011;29654;50.784;20.604;2022-11-11T17:41:51;15.45;;;12.05;;
43990;SDS011;29654;50.784;20.604;2022-11-11T17:47:13;12.60;;;11.00;;
43990;SDS011;29654;50.784;20.604;2022-11-11T17:52:35;16.52;;;11.93;;
43990;SDS011;29654;50.784;20.604;2022-11-11T17:57:56;13.48;;;10.40;;
43990;SDS011;29654;50.784;20.604;2022-11-11T18:03:20;16.58;;;11.10;;
43990;SDS011;29654;50.784;20.604;2022-11-11T18:08:41;14.45;;;10.85;;
43990;SDS011;29654;50.784;20.604;2022-11-11T18:14:02;13.07;;;10.50;;
43990;SDS011;29654;50.784;20.604;2022-11-11T18:19:25;16.27;;;11.25;;
43990;SDS011;29654;50.784;20.604;2022-11-11T18:24:47;12.43;;;10.77;;
43990;SDS011;29654;50.784;20.604;2022-11-11T18:30:09;12.13;;;10.45;;
43990;SDS011;29654;50.784;20.604;2022-11-11T18:35:35;15.55;;;11.90;;
43990;SDS011;29654;50.784;20.604;2022-11-11T18:41:00;14.25;;;11.18;;
43990;SDS011;29654;50.784;20.604;2022-11-11T18:46:30;13.27;;;10.52;;
43990;SDS011;29654;50.784;20.604;2022-11-11T18:51:57;13.50;;;11.13;;
43990;SDS011;29654;50.784;20.604;2022-11-11T18:57:18;13.43;;;11.02;;
43990;SDS011;29654;50.784;20.604;2022-11-11T19:02:40;14.05;;;10.63;;
43990;SDS011;29654;50.784;20.604;2022-11-11T19:08:06;13.32;;;10.15;;
43990;SDS011;29654;50.784;20.604;2022-11-11T19:13:31;15.40;;;10.10;;
43990;SDS011;29654;50.784;20.604;2022-11-11T19:18:57;12.55;;;9.50;;
43990;SDS011;29654;50.784;20.604;2022-11-11T19:24:23;12.15;;;9.27;;
43990;SDS011;29654;50.784;20.604;2022-11-11T19:29:48;10.02;;;7.72;;
43990;SDS011;29654;50.784;20.604;2022-11-11T19:35:12;11.27;;;8.05;;
43990;SDS011;29654;50.784;20.604;2022-11-11T19:40:39;11.52;;;8.90;;
43990;SDS011;29654;50.784;20.604;2022-11-11T19:46:03;10.10;;;8.05;;
43990;SDS011;29654;50.784;20.604;2022-11-11T19:51:29;8.15;;;7.35;;
43990;SDS011;29654;50.784;20.604;2022-11-11T19:56:54;10.60;;;8.15;;
43990;SDS011;29654;50.784;20.604;2022-11-11T20:02:15;10.57;;;7.97;;
43990;SDS011;29654;50.784;20.604;2022-11-11T20:07:37;11.27;;;8.27;;
43990;SDS011;29654;50.784;20.604;2022-11-11T20:13:02;12.68;;;8.20;;
43990;SDS011;29654;50.784;20.604;2022-11-11T20:18:26;10.13;;;7.50;;
43990;SDS011;29654;50.784;20.604;2022-11-11T20:23:50;9.45;;;6.72;;
43990;SDS011;29654;50.784;20.604;2022-11-11T20:29:15;12.73;;;8.48;;
43990;SDS011;29654;50.784;20.604;2022-11-11T20:34:36;9.10;;;8.18;;
43990;SDS011;29654;50.784;20.604;2022-11-11T20:39:58;9.63;;;8.07;;
43990;SDS011;29654;50.784;20.604;2022-11-11T20:45:22;10.43;;;8.20;;
43990;SDS011;29654;50.784;20.604;2022-11-11T20:50:46;9.55;;;8.13;;
43990;SDS011;29654;50.784;20.604;2022-11-11T20:56:10;9.57;;;7.35;;
43990;SDS011;29654;50.784;20.604;2022-11-11T21:01:37;8.52;;;6.57;;
43990;SDS011;29654;50.784;20.604;2022-11-11T21:07:02;13.18;;;9.65;;
43990;SDS011;29654;50.784;20.604;2022-11-11T21:12:30;12.48;;;8.70;;
43990;SDS011;29654;50.784;20.604;2022-11-11T21:17:55;11.43;;;8.70;;
43990;SDS011;29654;50.784;20.604;2022-11-11T21:23:21;10.10;;;8.40;;
43990;SDS011;29654;50.784;20.604;2022-11-11T21:28:45;9.55;;;7.25;;
43990;SDS011;29654;50.784;20.604;2022-11-11T21:34:11;11.65;;;7.72;;
43990;SDS011;29654;50.784;20.604;2022-11-11T21:39:33;12.18;;;8.90;;
43990;SDS011;29654;50.784;20.604;2022-11-11T21:44:54;11.38;;;8.18;;
43990;SDS011;29654;50.784;20.604;2022-11-11T21:50:20;11.00;;;8.25;;
43990;SDS011;29654;50.784;20.604;2022-11-11T21:55:44;12.73;;;8.13;;
43990;SDS011;29654;50.784;20.604;2022-11-11T22:01:06;11.10;;;8.38;;
43990;SDS011;29654;50.784;20.604;2022-11-11T22:06:31;11.50;;;8.32;;
43990;SDS011;29654;50.784;20.604;2022-11-11T22:11:55;9.98;;;7.88;;
43990;SDS011;29654;50.784;20.604;2022-11-11T22:17:16;10.93;;;7.45;;
43990;SDS011;29654;50.784;20.604;2022-11-11T22:22:39;10.13;;;7.95;;
43990;SDS011;29654;50.784;20.604;2022-11-11T22:28:00;10.88;;;8.52;;
43990;SDS011;29654;50.784;20.604;2022-11-11T22:33:21;10.15;;;7.40;;
43990;SDS011;29654;50.784;20.604;2022-11-11T22:38:44;10.93;;;8.38;;
43990;SDS011;29654;50.784;20.604;2022-11-11T22:44:07;8.25;;;7.40;;
43990;SDS011;29654;50.784;20.604;2022-11-11T22:49:29;18.40;;;10.70;;
43990;SDS011;29654;50.784;20.604;2022-11-11T22:54:52;11.55;;;9.02;;
43990;SDS011;29654;50.784;20.604;2022-11-11T23:00:13;10.02;;;8.35;;
43990;SDS011;29654;50.784;20.604;2022-11-11T23:05:35;10.00;;;7.45;;
43990;SDS011;29654;50.784;20.604;2022-11-11T23:11:03;11.32;;;7.55;;
43990;SDS011;29654;50.784;20.604;2022-11-11T23:16:26;10.80;;;8.45;;
43990;SDS011;29654;50.784;20.604;2022-11-11T23:21:48;8.75;;;6.97;;
43990;SDS011;29654;50.784;20.604;2022-11-11T23:27:11;11.50;;;8.95;;
43990;SDS011;29654;50.784;20.604;2022-11-11T23:32:32;11.65;;;9.65;;
43990;SDS011;29654;50.784;20.604;2022-11-11T23:37:53;12.05;;;9.07;;
43990;SDS011;29654;50.784;20.604;2022-11-11T23:43:16;9.90;;;7.90;;
43990;SDS011;29654;50.784;20.604;2022-11-11T23:48:37;8.98;;;6.68;;
43990;SDS011;29654;50.784;20.604;2022-11-11T23:53:59;13.60;;;11.82;;
43990;SDS011;29654;50.784;20.604;2022-11-11T23:59:22;9.18;;;7.45;;
